METAR Data
IDs: Format: Raw Decoded Include TAF

Data at: 1906 UTC 21 Nov 2018

METAR for:KDRT (Del Rio Intl, TX, US)
Text:KDRT 211853Z AUTO 11011KT 10SM FEW030 OVC044 12/06 A3030 RMK AO2 SLP254 T01220061
Temperature: 12.2°C ( 54°F)
Dewpoint: 6.1°C ( 43°F) [RH = 66%]
Pressure (altimeter):30.30 inches Hg (1026.2 mb) [Sea level pressure: 1025.4 mb]
Winds:from the ESE (110 degrees) at 13 MPH (11 knots; 5.7 m/s)
Visibility:10 or more sm (16+ km)
Ceiling:4400 feet AGL
Clouds: few clouds at 3000 feet AGL, overcast cloud deck at 4400 feet AGL
QC Flag:automated observation with no human augmentation